Time;durP1;ratioP1;P1;durP2;ratioP2;P2;SDS_P1;SDS_P2;PMS_P1;PMS_P2;Temp;Humidity;BMP_temperature;BMP_pressure;BME280_temperature;BME280_humidity;BME280_pressure;Samples;Min_cycle;Max_cycle;Signal;HPM_P1;HPM_P2
2021/12/08 00:00:19;;;;;;;29.20;11.70;;;4.50;99.90;;;;;;5078236;28;20024;-70
2021/12/08 00:02:45;;;;;;;30.40;11.70;;;4.50;99.90;;;;;;5058630;28;20044;-70
2021/12/08 00:05:14;;;;;;;31.13;11.57;;;4.50;99.90;;;;;;5058891;28;20025;-70
2021/12/08 00:07:39;;;;;;;25.13;10.25;;;4.50;99.90;;;;;;5058780;28;20032;-71
2021/12/08 00:10:27;;;;;;;32.25;11.77;;;4.40;99.90;;;;;;5058795;28;20422;-71
2021/12/08 00:15:36;;;;;;;30.15;11.15;;;4.40;99.90;;;;;;5076576;28;20362;-71
2021/12/08 00:18:05;;;;;;;26.92;10.13;;;4.40;99.90;;;;;;5076508;28;20052;-70
2021/12/08 00:20:33;;;;;;;23.55;10.15;;;4.40;99.90;;;;;;5076322;28;20024;-70
2021/12/08 00:23:00;;;;;;;27.15;11.43;;;4.40;99.90;;;;;;5058429;28;20116;-70
2021/12/08 00:25:27;;;;;;;27.35;11.23;;;4.40;99.90;;;;;;5075679;28;20040;-71
2021/12/08 00:27:52;;;;;;;27.15;10.10;;;4.40;99.90;;;;;;5075061;28;20037;-70
2021/12/08 00:30:19;;;;;;;31.75;10.98;;;4.40;99.90;;;;;;5075011;28;20115;-70
2021/12/08 00:32:46;;;;;;;24.77;10.63;;;4.50;99.90;;;;;;5076309;28;20029;-71
2021/12/08 00:35:13;;;;;;;25.35;11.30;;;4.50;99.90;;;;;;5058361;28;20386;-71
2021/12/08 00:37:40;;;;;;;20.40;9.98;;;4.50;99.90;;;;;;5076451;28;20474;-71
2021/12/08 00:40:08;;;;;;;20.60;8.88;;;4.60;99.90;;;;;;5076276;28;20020;-70
2021/12/08 00:42:36;;;;;;;23.58;9.32;;;4.60;99.90;;;;;;5080044;28;20107;-69
2021/12/08 00:45:01;;;;;;;23.60;8.63;;;4.60;99.90;;;;;;5085037;28;20092;-70
2021/12/08 00:47:27;;;;;;;19.70;9.05;;;4.60;99.90;;;;;;5091928;28;20032;-70
2021/12/08 00:49:53;;;;;;;22.15;8.93;;;4.60;99.90;;;;;;5064379;28;20074;-70
2021/12/08 00:52:19;;;;;;;23.88;9.45;;;4.60;99.90;;;;;;5076120;28;20036;-71
2021/12/08 00:54:44;;;;;;;17.05;8.38;;;4.60;99.90;;;;;;5075875;28;20031;-70
2021/12/08 00:57:10;;;;;;;15.13;7.85;;;4.50;99.90;;;;;;5075820;28;20028;-71
2021/12/08 00:59:37;;;;;;;19.20;8.93;;;4.60;99.90;;;;;;5075803;28;20473;-71
2021/12/08 01:02:04;;;;;;;18.88;8.13;;;4.60;99.90;;;;;;5057661;28;20471;-70
2021/12/08 01:04:31;;;;;;;16.63;7.80;;;4.50;99.90;;;;;;5058251;28;20025;-70
2021/12/08 01:06:57;;;;;;;17.67;7.63;;;4.60;99.90;;;;;;5074560;28;20074;-70
2021/12/08 01:09:23;;;;;;;15.35;7.20;;;4.60;99.90;;;;;;5075489;28;20052;-71
2021/12/08 01:11:50;;;;;;;15.13;8.27;;;4.60;99.90;;;;;;5057800;28;20025;-70
2021/12/08 01:14:16;;;;;;;16.35;7.68;;;4.60;99.90;;;;;;5074519;28;20044;-71
2021/12/08 01:16:42;;;;;;;12.73;7.15;;;4.60;99.90;;;;;;5066203;28;20024;-70
2021/12/08 01:19:08;;;;;;;14.70;7.93;;;4.50;99.90;;;;;;5095668;28;20107;-71
2021/12/08 01:21:34;;;;;;;15.40;8.20;;;4.50;99.90;;;;;;5095469;28;20028;-71
2021/12/08 01:24:01;;;;;;;14.32;7.45;;;4.60;99.90;;;;;;5095745;28;20020;-71
2021/12/08 01:26:27;;;;;;;17.02;7.00;;;4.50;99.90;;;;;;5077428;28;20202;-71
2021/12/08 01:28:56;;;;;;;15.25;7.22;;;4.50;99.90;;;;;;5077001;28;20040;-71
2021/12/08 01:31:26;;;;;;;12.85;6.45;;;4.50;99.90;;;;;;5094145;28;20032;-70
2021/12/08 01:33:52;;;;;;;15.98;7.18;;;4.50;99.90;;;;;;5077210;28;20382;-71
2021/12/08 01:36:18;;;;;;;16.17;6.80;;;4.60;99.90;;;;;;5076262;28;20032;-71
2021/12/08 01:38:45;;;;;;;19.13;7.75;;;4.50;99.90;;;;;;5080537;28;20032;-70
2021/12/08 01:41:11;;;;;;;17.48;7.25;;;4.60;99.90;;;;;;5084499;28;20061;-71
2021/12/08 01:46:22;;;;;;;16.60;7.68;;;4.60;99.90;;;;;;5075560;28;20478;-71
2021/12/08 01:48:47;;;;;;;13.48;7.13;;;4.70;99.90;;;;;;5056821;28;20029;-70
2021/12/08 01:51:17;;;;;;;15.23;7.82;;;4.70;99.90;;;;;;5087382;28;20050;-71
2021/12/08 01:53:47;;;;;;;16.77;7.03;;;4.60;99.90;;;;;;5073496;28;20040;-70
2021/12/08 01:56:13;;;;;;;27.67;7.85;;;4.70;99.90;;;;;;5074680;28;20028;-70
2021/12/08 01:58:39;;;;;;;20.23;8.05;;;4.60;99.90;;;;;;5056706;28;20451;-69
2021/12/08 02:01:08;;;;;;;16.38;7.05;;;4.60;99.90;;;;;;5074759;28;20359;-70
2021/12/08 02:03:36;;;;;;;20.05;8.15;;;4.60;99.90;;;;;;5075032;28;20035;-69
2021/12/08 02:06:03;;;;;;;14.65;7.88;;;4.60;99.90;;;;;;5056856;28;20033;-70
2021/12/08 02:08:30;;;;;;;17.88;7.80;;;4.60;99.90;;;;;;5074172;28;20085;-69
2021/12/08 02:10:56;;;;;;;13.60;7.05;;;4.50;99.90;;;;;;5079167;28;20032;-70
2021/12/08 02:13:22;;;;;;;17.27;8.10;;;4.60;99.90;;;;;;5093726;28;20424;-70
2021/12/08 02:15:48;;;;;;;14.98;7.07;;;4.60;99.90;;;;;;5094663;28;20028;-71
2021/12/08 02:18:16;;;;;;;20.60;8.20;;;4.60;99.90;;;;;;5093726;28;20036;-70
2021/12/08 02:20:44;;;;;;;15.27;6.97;;;4.60;99.90;;;;;;5094050;28;20502;-71
2021/12/08 02:23:10;;;;;;;15.25;6.88;;;4.60;99.90;;;;;;5092642;28;20429;-70
2021/12/08 02:25:36;;;;;;;14.88;6.65;;;4.60;99.90;;;;;;5092878;28;20118;-70
2021/12/08 02:28:05;;;;;;;17.35;7.40;;;4.60;99.90;;;;;;5094241;28;20028;-70
2021/12/08 02:30:37;;;;;;;18.63;7.43;;;4.60;99.90;;;;;;5093263;28;20382;-70
2021/12/08 02:47:11;;;;;;;18.75;7.38;;;4.40;99.90;;;;;;5093777;28;20026;-70
2021/12/08 02:49:38;;;;;;;;;;;4.40;99.90;;;;;;5093314;28;20028;-70
2021/12/08 02:52:06;;;;;;;20.67;7.63;;;4.40;99.90;;;;;;5094080;28;19908;-70
2021/12/08 02:54:44;;;;;;;16.92;7.10;;;4.40;99.90;;;;;;5093704;28;20024;-72
2021/12/08 02:57:12;;;;;;;25.38;8.75;;;4.30;99.90;;;;;;5092794;28;20036;-70
2021/12/08 02:59:41;;;;;;;18.75;7.38;;;4.30;99.90;;;;;;5094164;28;20024;-69
2021/12/08 03:02:07;;;;;;;18.77;8.00;;;4.30;99.90;;;;;;5075599;28;20078;-69
2021/12/08 03:04:33;;;;;;;20.63;6.93;;;4.40;99.90;;;;;;5093982;28;20020;-70
2021/12/08 03:06:58;;;;;;;21.80;7.85;;;4.30;99.90;;;;;;5079221;28;20040;-70
2021/12/08 03:09:25;;;;;;;25.27;8.40;;;4.30;99.90;;;;;;5076116;28;20058;-70
2021/12/08 03:11:54;;;;;;;16.13;7.63;;;4.40;99.90;;;;;;5094333;28;20035;-71
2021/12/08 03:14:20;;;;;;;22.25;8.27;;;4.40;99.90;;;;;;5075753;28;20024;-70
2021/12/08 03:16:50;;;;;;;20.98;8.52;;;4.40;99.90;;;;;;5092549;28;20116;-69
2021/12/08 03:19:17;;;;;;;21.30;8.52;;;4.40;99.90;;;;;;5093525;28;20039;-71
2021/12/08 03:21:43;;;;;;;24.67;7.85;;;4.40;99.90;;;;;;5075642;28;20385;-70
2021/12/08 03:26:56;;;;;;;33.95;8.82;;;4.40;99.90;;;;;;5095641;28;20066;-70
2021/12/08 03:31:51;;;;;;;27.25;8.50;;;4.40;99.90;;;;;;5103137;28;19910;-70
2021/12/08 03:34:19;;;;;;;21.30;8.77;;;4.40;99.90;;;;;;5075881;28;20057;-70
2021/12/08 03:36:46;;;;;;;23.55;8.30;;;4.40;99.90;;;;;;5092196;28;20035;-70
2021/12/08 03:39:12;;;;;;;23.30;7.90;;;4.40;99.90;;;;;;5092065;28;20115;-70
2021/12/08 03:41:37;;;;;;;24.83;8.13;;;4.40;99.90;;;;;;5093702;28;20067;-70
2021/12/08 03:44:04;;;;;;;25.83;9.90;;;4.40;99.90;;;;;;5091942;28;20426;-70
2021/12/08 03:46:35;;;;;;;21.73;8.00;;;4.50;99.90;;;;;;5093485;28;20082;-70
2021/12/08 03:49:05;;;;;;;21.13;7.68;;;4.50;99.90;;;;;;5074735;28;20059;-71
2021/12/08 03:51:31;;;;;;;20.55;8.02;;;4.50;99.90;;;;;;5075292;28;20031;-70
2021/12/08 03:53:56;;;;;;;24.20;8.02;;;4.50;99.90;;;;;;5093391;28;20024;-70
2021/12/08 03:56:22;;;;;;;24.58;7.38;;;4.60;99.90;;;;;;5092176;28;20032;-70
2021/12/08 03:58:48;;;;;;;23.70;8.00;;;4.60;99.90;;;;;;5093342;28;20032;-70
2021/12/08 04:01:13;;;;;;;25.42;8.95;;;4.60;99.90;;;;;;5095633;28;20052;-69
2021/12/08 04:03:40;;;;;;;32.35;10.13;;;4.60;99.90;;;;;;5096963;28;20028;-69
2021/12/08 04:06:15;;;;;;;30.45;10.38;;;4.60;99.90;;;;;;5078736;28;20103;-69
2021/12/08 04:08:45;;;;;;;30.13;9.70;;;4.70;99.90;;;;;;5079035;28;20040;-69
2021/12/08 04:11:13;;;;;;;38.97;12.45;;;4.70;99.90;;;;;;5096850;28;20050;-70
2021/12/08 04:13:54;;;;;;;25.20;9.48;;;4.70;99.90;;;;;;5095298;28;20032;-71
2021/12/08 04:16:24;;;;;;;27.10;8.57;;;4.70;99.90;;;;;;5096848;28;20458;-70
2021/12/08 04:18:50;;;;;;;20.17;8.45;;;4.70;99.90;;;;;;5094119;28;20111;-70
2021/12/08 04:21:17;;;;;;;32.47;9.82;;;4.70;99.90;;;;;;5086295;28;20059;-69
2021/12/08 04:23:44;;;;;;;26.48;8.73;;;4.70;99.90;;;;;;5088852;28;20017;-70
2021/12/08 04:26:15;;;;;;;27.92;9.15;;;4.70;99.90;;;;;;5072619;28;20519;-70
2021/12/08 04:28:41;;;;;;;29.90;9.63;;;4.70;99.90;;;;;;5078128;28;20467;-70
2021/12/08 04:31:17;;;;;;;36.05;11.10;;;4.70;99.90;;;;;;5076157;28;20024;-71
2021/12/08 04:33:43;;;;;;;27.60;9.73;;;4.70;99.90;;;;;;5076486;28;20462;-69
2021/12/08 04:36:12;;;;;;;26.02;10.45;;;4.70;99.90;;;;;;5076266;28;20029;-69
2021/12/08 04:38:43;;;;;;;41.22;15.20;;;4.80;99.90;;;;;;5074884;28;20028;-69
2021/12/08 04:41:15;;;;;;;39.30;13.73;;;4.70;99.90;;;;;;5058918;28;20029;-72
2021/12/08 05:00:19;;;;;;;53.30;14.80;;;4.70;99.90;;;;;;5075736;28;20073;-70
2021/12/08 05:00:29;;;;;;;41.67;12.20;;;4.70;99.90;;;;;;5086480;28;20107;-70
2021/12/08 05:06:04;;;;;;;41.47;13.40;;;4.70;99.90;;;;;;5077686;28;20408;-71
2021/12/08 05:08:41;;;;;;;43.13;13.73;;;4.70;99.90;;;;;;5093031;28;20036;-71
2021/12/08 05:11:26;;;;;;;34.50;12.98;;;4.70;99.90;;;;;;5082082;28;20386;-71
2021/12/08 05:14:00;;;;;;;38.40;13.33;;;4.70;99.90;;;;;;5075223;28;20538;-71
2021/12/08 05:16:27;;;;;;;45.03;15.23;;;4.70;99.90;;;;;;5078477;28;20107;-70
2021/12/08 05:18:55;;;;;;;38.70;13.60;;;4.80;99.90;;;;;;5099349;28;20832;-70
2021/12/08 05:21:37;;;;;;;44.83;13.52;;;4.80;99.90;;;;;;5087921;28;20028;-70
2021/12/08 05:24:11;;;;;;;54.53;15.98;;;4.80;99.90;;;;;;5063822;28;20031;-70
2021/12/08 05:26:42;;;;;;;50.00;14.88;;;4.80;99.90;;;;;;5079232;28;20038;-71
2021/12/08 05:29:15;;;;;;;52.45;15.88;;;4.80;99.90;;;;;;5088034;28;20115;-69
2021/12/08 05:31:41;;;;;;;60.97;15.90;;;4.70;99.90;;;;;;5067819;28;20141;-70
2021/12/08 05:34:07;;;;;;;43.22;15.23;;;4.70;99.90;;;;;;5074837;28;20052;-69
2021/12/08 05:36:35;;;;;;;52.03;16.17;;;4.70;99.90;;;;;;5073820;28;20032;-70
2021/12/08 05:39:05;;;;;;;57.47;18.33;;;4.70;99.90;;;;;;5086610;28;20024;-71
2021/12/08 05:41:34;;;;;;;57.22;18.50;;;4.80;99.90;;;;;;5077775;28;20032;-71
2021/12/08 05:44:01;;;;;;;70.20;22.60;;;4.80;99.90;;;;;;5083894;28;20024;-71
2021/12/08 05:46:30;;;;;;;56.13;21.88;;;4.80;99.90;;;;;;5077923;28;20099;-72
2021/12/08 05:48:55;;;;;;;58.97;20.52;;;4.80;99.90;;;;;;5065607;28;20044;-71
2021/12/08 05:51:28;;;;;;;51.60;19.02;;;4.80;99.90;;;;;;5061249;28;20069;-71
2021/12/08 05:53:59;;;;;;;52.38;19.13;;;4.90;99.90;;;;;;5072862;28;20073;-72
2021/12/08 05:56:26;;;;;;;51.35;20.20;;;4.90;99.90;;;;;;5092612;28;20035;-71
2021/12/08 05:58:54;;;;;;;53.47;22.05;;;4.90;99.90;;;;;;5071758;28;20035;-72
2021/12/08 06:01:28;;;;;;;69.78;25.52;;;4.90;99.90;;;;;;5077305;28;20463;-72
2021/12/08 06:03:54;;;;;;;75.43;29.77;;;4.90;99.90;;;;;;5067291;28;20077;-71
2021/12/08 06:06:23;;;;;;;65.97;28.13;;;4.90;99.90;;;;;;5067135;28;20016;-71
2021/12/08 06:08:51;;;;;;;65.00;27.92;;;5.00;99.90;;;;;;5066634;28;20096;-71
2021/12/08 06:11:16;;;;;;;66.65;28.15;;;5.00;99.90;;;;;;5076966;28;20066;-71
2021/12/08 06:13:45;;;;;;;67.57;27.33;;;5.00;99.90;;;;;;5084922;28;20025;-71
2021/12/08 06:16:14;;;;;;;64.60;27.75;;;5.00;99.90;;;;;;5086655;28;20019;-71
2021/12/08 06:18:45;;;;;;;56.67;27.10;;;5.10;99.90;;;;;;5073170;28;20028;-72
2021/12/08 06:21:16;;;;;;;58.03;25.02;;;5.10;99.90;;;;;;5072902;28;20032;-72
2021/12/08 06:23:44;;;;;;;68.60;26.65;;;5.10;99.90;;;;;;5064366;28;20035;-72
2021/12/08 06:26:12;;;;;;;63.53;23.85;;;5.10;99.90;;;;;;5081508;28;20028;-71
2021/12/08 06:28:38;;;;;;;63.03;27.02;;;5.10;99.90;;;;;;5073727;28;20474;-71
2021/12/08 06:31:06;;;;;;;58.63;25.73;;;5.10;99.90;;;;;;5077817;28;20040;-71
2021/12/08 06:33:31;;;;;;;75.53;28.00;;;5.10;99.90;;;;;;5085240;28;20055;-75
2021/12/08 06:36:04;;;;;;;61.47;25.65;;;5.20;99.90;;;;;;5084809;28;20060;-72
2021/12/08 06:38:30;;;;;;;83.22;26.70;;;5.20;99.90;;;;;;5074344;28;20462;-72
2021/12/08 06:40:59;;;;;;;65.30;23.70;;;5.20;99.90;;;;;;5078506;28;20036;-70
2021/12/08 06:43:32;;;;;;;62.47;22.45;;;5.20;99.90;;;;;;5065535;28;20024;-73
2021/12/08 06:45:59;;;;;;;59.65;20.77;;;5.30;99.90;;;;;;5085236;28;20028;-73
2021/12/08 06:48:47;;;;;;;59.70;21.60;;;5.30;99.90;;;;;;5081442;28;20040;-73
2021/12/08 06:51:18;;;;;;;57.75;21.05;;;5.30;99.90;;;;;;5075964;28;20035;-75
2021/12/08 06:53:49;;;;;;;60.67;21.67;;;5.30;99.90;;;;;;5093608;28;20051;-78
2021/12/08 06:56:22;;;;;;;81.35;24.55;;;5.20;99.90;;;;;;5075416;28;20032;-71
2021/12/08 06:58:51;;;;;;;64.75;20.45;;;5.20;99.90;;;;;;5069018;28;20078;-72
2021/12/08 07:01:41;;;;;;;53.20;22.27;;;5.20;99.90;;;;;;5058462;28;20380;-70
2021/12/08 07:09:23;;;;;;;53.50;19.92;;;5.20;99.90;;;;;;5076530;28;20045;-72
2021/12/08 07:11:52;;;;;;;69.07;23.55;;;5.20;99.90;;;;;;5075156;28;20413;-72
2021/12/08 07:14:19;;;;;;;83.15;26.50;;;5.30;99.90;;;;;;5076591;28;20031;-72
2021/12/08 07:16:50;;;;;;;89.00;23.92;;;5.30;99.90;;;;;;5087769;28;20521;-70
2021/12/08 07:19:46;;;;;;;63.92;20.85;;;5.30;99.90;;;;;;5075056;28;20044;-74
2021/12/08 07:22:19;;;;;;;88.63;23.17;;;5.30;99.90;;;;;;5055343;28;20412;-75
2021/12/08 07:24:47;;;;;;;82.40;23.80;;;5.30;99.90;;;;;;5071458;28;20029;-74
2021/12/08 07:27:23;;;;;;;89.63;26.35;;;5.30;99.90;;;;;;5073341;28;20035;-74
2021/12/08 07:29:50;;;;;;;102.82;29.02;;;5.30;99.90;;;;;;5073486;28;20025;-74
2021/12/08 07:32:19;;;;;;;89.40;27.58;;;5.30;99.90;;;;;;5073469;28;20032;-74
2021/12/08 07:34:46;;;;;;;92.78;30.90;;;5.40;99.90;;;;;;5075008;28;20200;-74
2021/12/08 07:37:16;;;;;;;114.47;31.23;;;5.40;99.90;;;;;;5077342;28;20051;-74
2021/12/08 07:39:45;;;;;;;108.90;30.15;;;5.50;99.90;;;;;;5075982;28;20028;-74
2021/12/08 07:42:22;;;;;;;68.40;27.85;;;5.50;99.90;;;;;;5077129;28;20020;-74
2021/12/08 07:44:52;;;;;;;73.32;32.30;;;5.60;99.90;;;;;;5059386;28;20025;-73
2021/12/08 07:47:19;;;;;;;79.40;34.33;;;5.60;99.90;;;;;;5075888;28;20127;-74
2021/12/08 07:50:10;;;;;;;76.93;37.13;;;5.70;99.90;;;;;;5075848;28;20028;-74
2021/12/08 07:52:40;;;;;;;69.18;38.63;;;5.80;99.90;;;;;;5077612;28;20074;-74
2021/12/08 07:55:14;;;;;;;80.35;49.55;;;5.90;99.90;;;;;;5079431;28;20390;-74
2021/12/08 07:57:42;;;;;;;63.78;41.67;;;5.90;99.90;;;;;;5081068;28;20033;-74
2021/12/08 08:00:24;;;;;;;71.88;44.10;;;5.90;99.90;;;;;;5060564;28;20463;-73
2021/12/08 08:02:51;;;;;;;55.63;36.95;;;5.90;99.90;;;;;;5059026;28;20056;-74
2021/12/08 08:05:22;;;;;;;51.30;35.10;;;5.90;99.90;;;;;;5058632;28;20406;-74
2021/12/08 08:07:48;;;;;;;55.20;34.45;;;5.90;99.90;;;;;;5076814;28;20028;-74
2021/12/08 08:10:16;;;;;;;55.60;33.60;;;5.90;99.90;;;;;;5058518;28;20056;-74
2021/12/08 08:12:45;;;;;;;53.05;33.33;;;5.90;99.90;;;;;;5058782;28;20382;-75
2021/12/08 08:15:23;;;;;;;50.53;33.38;;;5.90;99.90;;;;;;5076699;28;20020;-73
2021/12/08 08:17:53;;;;;;;49.28;33.58;;;5.90;99.90;;;;;;5058951;28;20033;-75
2021/12/08 08:20:28;;;;;;;53.70;34.60;;;5.90;99.90;;;;;;5076849;28;20032;-75
2021/12/08 08:22:55;;;;;;;58.38;36.10;;;5.90;99.90;;;;;;5058744;28;20115;-74
2021/12/08 08:25:28;;;;;;;55.78;36.22;;;5.90;99.90;;;;;;5075101;28;20120;-74
2021/12/08 08:27:54;;;;;;;60.42;35.63;;;5.80;99.90;;;;;;5076130;28;20112;-74
2021/12/08 08:30:28;;;;;;;64.18;35.92;;;5.80;99.90;;;;;;5076723;28;20040;-73
2021/12/08 08:32:56;;;;;;;61.10;36.83;;;5.80;99.90;;;;;;5058807;28;20028;-74
2021/12/08 08:35:35;;;;;;;58.72;35.60;;;5.70;99.90;;;;;;5076864;28;20024;-74
2021/12/08 08:38:05;;;;;;;62.08;37.03;;;5.70;99.90;;;;;;5076520;28;20029;-74
2021/12/08 08:40:40;;;;;;;64.80;39.25;;;5.60;99.90;;;;;;5075026;28;20115;-74
2021/12/08 08:43:08;;;;;;;67.60;41.38;;;5.60;99.90;;;;;;5076392;28;20413;-74
2021/12/08 08:46:07;;;;;;;68.53;41.08;;;5.50;99.90;;;;;;5075531;28;20029;-74
2021/12/08 08:48:41;;;;;;;70.35;42.25;;;5.50;99.90;;;;;;5076087;28;20032;-74
2021/12/08 08:51:15;;;;;;;60.85;37.75;;;5.50;99.90;;;;;;5080780;28;20028;-74
2021/12/08 08:53:44;;;;;;;65.35;38.85;;;5.50;99.90;;;;;;5079800;28;20033;-74
2021/12/08 08:56:16;;;;;;;60.75;37.00;;;5.50;99.90;;;;;;5058207;28;20489;-74
2021/12/08 08:58:47;;;;;;;64.18;41.05;;;5.50;99.90;;;;;;5075941;28;20036;-73
2021/12/08 09:01:21;;;;;;;66.85;43.22;;;5.50;99.90;;;;;;5075829;28;20052;-74
2021/12/08 09:04:01;;;;;;;90.85;76.78;;;5.50;99.90;;;;;;5076093;28;20347;-74
2021/12/08 09:06:34;;;;;;;77.10;48.88;;;5.50;99.90;;;;;;5075838;28;20032;-74
2021/12/08 09:09:05;;;;;;;99.32;55.40;;;5.60;99.90;;;;;;5075627;28;20048;-74
2021/12/08 09:11:37;;;;;;;88.20;59.70;;;5.60;99.90;;;;;;5075999;28;20021;-74
2021/12/08 09:14:09;;;;;;;80.50;54.80;;;5.70;99.90;;;;;;5075632;28;20111;-74
2021/12/08 09:17:07;;;;;;;80.32;57.08;;;5.80;99.90;;;;;;5075206;28;20470;-74
2021/12/08 09:19:42;;;;;;;95.70;65.63;;;5.80;99.90;;;;;;5061156;28;20066;-74
2021/12/08 09:22:18;;;;;;;80.15;49.00;;;5.80;99.90;;;;;;5057242;28;20029;-74
2021/12/08 09:25:10;;;;;;;75.00;45.63;;;5.90;99.90;;;;;;5075423;28;20052;-75
2021/12/08 09:27:41;;;;;;;77.10;49.00;;;5.90;99.90;;;;;;5075233;28;20032;-74
2021/12/08 09:30:19;;;;;;;63.95;40.45;;;5.90;99.90;;;;;;5075217;28;20032;-75
2021/12/08 09:32:58;;;;;;;64.50;41.78;;;5.90;99.90;;;;;;5057179;28;20024;-74
2021/12/08 09:35:31;;;;;;;74.90;44.00;;;5.90;99.90;;;;;;5075324;28;20028;-73
2021/12/08 09:38:19;;;;;;;60.10;39.58;;;5.90;99.90;;;;;;5075255;28;20029;-74
2021/12/08 09:40:54;;;;;;;57.42;37.50;;;6.00;99.90;;;;;;5074626;28;20036;-75
2021/12/08 09:43:33;;;;;;;54.10;35.20;;;6.00;99.90;;;;;;5057692;28;20115;-74
2021/12/08 09:46:33;;;;;;;59.03;36.55;;;6.00;99.90;;;;;;5061041;28;20042;-74
2021/12/08 09:49:01;;;;;;;60.63;37.67;;;6.00;99.90;;;;;;5076302;28;20119;-74
2021/12/08 09:51:28;;;;;;;63.70;41.08;;;6.00;99.90;;;;;;5075064;28;20083;-74
2021/12/08 09:53:55;;;;;;;56.22;37.28;;;6.00;99.90;;;;;;5056883;28;20143;-74
2021/12/08 09:56:22;;;;;;;59.13;38.00;;;6.00;99.90;;;;;;5073539;28;20024;-74
2021/12/08 09:58:48;;;;;;;58.47;40.30;;;6.10;99.90;;;;;;5056669;28;20352;-75
2021/12/08 10:01:19;;;;;;;51.28;32.92;;;6.10;99.90;;;;;;5056591;28;20048;-75
2021/12/08 10:03:46;;;;;;;54.20;35.85;;;6.10;99.90;;;;;;5074613;28;20062;-74
2021/12/08 10:06:13;;;;;;;61.25;37.55;;;6.10;99.90;;;;;;5056824;28;20082;-74
2021/12/08 10:08:41;;;;;;;59.35;37.05;;;6.10;99.90;;;;;;5056684;28;20072;-73
2021/12/08 10:11:07;;;;;;;65.93;43.50;;;6.10;99.90;;;;;;5074462;28;20036;-73
2021/12/08 10:13:33;;;;;;;80.40;55.78;;;6.10;99.90;;;;;;5074455;28;20033;-75
2021/12/08 10:15:59;;;;;;;81.22;58.38;;;6.10;99.90;;;;;;5056618;28;20112;-75
2021/12/08 10:18:24;;;;;;;84.65;55.25;;;6.10;99.90;;;;;;5074946;28;20034;-74
2021/12/08 10:20:53;;;;;;;74.15;51.75;;;6.00;99.90;;;;;;5075812;28;20032;-73
2021/12/08 10:23:32;;;;;;;83.88;55.83;;;6.00;99.90;;;;;;5074659;28;20059;-74
2021/12/08 10:26:00;;;;;;;84.93;57.40;;;6.00;99.90;;;;;;5074360;28;20450;-74
2021/12/08 10:28:54;;;;;;;100.55;68.47;;;6.00;99.90;;;;;;5074078;28;20067;-74
2021/12/08 10:31:30;;;;;;;81.55;55.22;;;6.00;99.90;;;;;;5063596;28;20037;-73
2021/12/08 10:34:04;;;;;;;88.88;59.28;;;6.00;99.90;;;;;;5074275;28;20028;-73
2021/12/08 10:37:20;;;;;;;69.45;43.20;;;6.00;99.90;;;;;;5074184;28;20032;-74
2021/12/08 10:39:52;;;;;;;77.00;43.63;;;6.10;99.90;;;;;;4996522;28;20115;-74
2021/12/08 10:42:33;;;;;;;82.72;51.28;;;6.10;99.90;;;;;;5065212;28;20033;-73
2021/12/08 10:47:50;;;;;;;68.53;41.55;;;6.00;99.90;;;;;;5073963;28;20032;-74
2021/12/08 10:56:06;;;;;;;70.50;40.50;;;6.10;99.90;;;;;;5074291;28;20039;-74
2021/12/08 10:58:39;;;;;;;72.30;38.47;;;6.10;99.90;;;;;;5073812;28;20032;-73
2021/12/08 11:01:11;;;;;;;74.07;41.83;;;6.10;99.90;;;;;;5073860;28;20040;-74
2021/12/08 11:03:38;;;;;;;78.40;43.30;;;6.10;99.90;;;;;;5073989;28;20027;-73
2021/12/08 11:06:04;;;;;;;73.53;40.70;;;6.10;99.90;;;;;;5073563;28;20475;-74
2021/12/08 11:08:38;;;;;;;71.13;40.13;;;6.10;99.90;;;;;;5055225;28;20114;-74
2021/12/08 11:11:06;;;;;;;67.57;38.45;;;6.10;99.90;;;;;;5073750;28;20029;-73
2021/12/08 11:13:38;;;;;;;68.97;40.03;;;6.20;99.90;;;;;;5073700;28;20401;-75
2021/12/08 11:16:07;;;;;;;80.30;40.47;;;6.20;99.90;;;;;;5055778;28;20118;-75
2021/12/08 11:18:38;;;;;;;88.13;46.10;;;6.20;99.90;;;;;;5073542;28;20162;-74
2021/12/08 11:21:18;;;;;;;87.80;44.10;;;6.20;99.90;;;;;;5073970;28;20363;-75
2021/12/08 11:23:46;;;;;;;77.95;43.22;;;6.20;99.90;;;;;;5055453;28;20397;-73
2021/12/08 11:26:38;;;;;;;82.40;43.38;;;6.20;99.90;;;;;;5073745;28;20024;-74
2021/12/08 11:29:12;;;;;;;72.88;39.67;;;6.20;99.90;;;;;;5073347;28;20039;-74
2021/12/08 11:31:40;;;;;;;67.80;36.92;;;6.20;99.90;;;;;;5072171;28;20040;-74
2021/12/08 11:34:14;;;;;;;70.20;37.13;;;6.20;99.90;;;;;;5075949;28;20162;-74
2021/12/08 11:36:41;;;;;;;64.28;35.72;;;6.20;99.90;;;;;;5076695;28;20033;-74
2021/12/08 11:39:11;;;;;;;59.38;33.40;;;6.20;99.90;;;;;;5077048;28;20036;-74
2021/12/08 11:41:43;;;;;;;60.33;34.20;;;6.20;99.90;;;;;;5073589;28;20174;-74
2021/12/08 11:44:21;;;;;;;60.53;34.30;;;6.20;99.90;;;;;;5073715;28;20032;-74
2021/12/08 11:46:52;;;;;;;63.47;33.42;;;6.20;99.90;;;;;;5073450;28;20025;-74
2021/12/08 11:49:18;;;;;;;67.22;37.10;;;6.20;99.90;;;;;;5055301;28;20048;-74
2021/12/08 11:51:44;;;;;;;67.60;37.00;;;6.10;99.90;;;;;;5055387;28;20047;-74
2021/12/08 11:54:23;;;;;;;79.88;40.13;;;6.20;99.90;;;;;;5072997;28;20021;-74
2021/12/08 11:56:49;;;;;;;71.85;38.92;;;6.20;99.90;;;;;;5071592;28;20032;-74
2021/12/08 11:59:15;;;;;;;80.85;38.92;;;6.10;99.90;;;;;;5071773;28;20028;-74
2021/12/08 12:01:41;;;;;;;82.60;39.83;;;6.10;99.90;;;;;;5055010;28;20064;-73
2021/12/08 12:04:08;;;;;;;78.50;40.10;;;6.10;99.90;;;;;;5073242;28;20025;-74
2021/12/08 12:06:35;;;;;;;90.20;42.47;;;6.20;99.90;;;;;;5073021;28;20031;-74
2021/12/08 12:09:03;;;;;;;96.30;45.45;;;6.10;99.90;;;;;;5057376;28;20047;-75
2021/12/08 12:11:30;;;;;;;103.15;47.70;;;6.10;99.90;;;;;;5055182;28;20032;-75
2021/12/08 12:13:58;;;;;;;116.90;51.80;;;6.10;99.90;;;;;;5055176;28;20028;-75
2021/12/08 12:16:25;;;;;;;128.70;52.58;;;6.10;99.90;;;;;;5073088;28;20032;-74
2021/12/08 12:18:56;;;;;;;130.05;53.42;;;6.10;99.90;;;;;;5055095;28;20039;-74
2021/12/08 12:21:33;;;;;;;135.90;50.08;;;6.10;99.90;;;;;;5057292;28;20020;-75
2021/12/08 12:24:09;;;;;;;128.52;47.50;;;6.10;99.90;;;;;;5058550;28;20062;-74
2021/12/08 12:26:56;;;;;;;131.82;50.65;;;6.20;99.90;;;;;;5076897;28;20119;-74
2021/12/08 12:29:51;;;;;;;153.18;48.55;;;6.20;99.90;;;;;;5078577;28;20033;-73
2021/12/08 12:32:31;;;;;;;188.15;53.38;;;6.10;99.90;;;;;;5063355;28;20020;-74
2021/12/08 12:35:15;;;;;;;206.00;54.25;;;6.10;99.90;;;;;;5076154;28;20025;-73
2021/12/08 12:37:41;;;;;;;196.98;51.35;;;6.10;99.90;;;;;;5075186;28;20047;-73
2021/12/08 12:40:11;;;;;;;159.18;51.53;;;6.10;99.90;;;;;;5058320;28;20029;-73
2021/12/08 12:42:49;;;;;;;207.65;54.88;;;6.10;99.90;;;;;;5076621;28;20386;-74
2021/12/08 12:45:16;;;;;;;185.43;52.03;;;6.10;99.90;;;;;;5074850;28;20032;-75
2021/12/08 12:48:03;;;;;;;153.57;49.92;;;6.10;99.90;;;;;;5075919;28;20477;-74
2021/12/08 12:50:28;;;;;;;184.48;52.22;;;6.10;99.90;;;;;;5075831;28;20473;-75
2021/12/08 12:52:56;;;;;;;203.75;55.75;;;6.10;99.90;;;;;;5076057;28;20100;-75
2021/12/08 12:55:35;;;;;;;138.82;50.70;;;6.20;99.90;;;;;;5076173;28;20039;-75
2021/12/08 12:58:03;;;;;;;149.15;53.30;;;6.20;99.90;;;;;;5074575;28;20032;-75
2021/12/08 13:00:32;;;;;;;191.40;60.17;;;6.20;99.90;;;;;;5074520;28;20025;-75
2021/12/08 13:02:59;;;;;;;194.35;62.30;;;6.20;99.90;;;;;;5075554;28;20081;-75
2021/12/08 13:05:45;;;;;;;186.32;58.45;;;6.20;99.90;;;;;;5076307;28;20077;-73
2021/12/08 13:08:12;;;;;;;158.15;59.13;;;6.20;99.90;;;;;;5057904;28;20040;-74
2021/12/08 13:10:39;;;;;;;167.23;57.42;;;6.20;99.90;;;;;;5076010;28;20036;-73
2021/12/08 13:13:16;;;;;;;160.23;57.15;;;6.30;99.90;;;;;;5075615;28;20024;-74
2021/12/08 13:15:44;;;;;;;168.73;56.78;;;6.30;99.90;;;;;;5057565;28;20028;-75
2021/12/08 13:18:15;;;;;;;173.27;59.50;;;6.30;99.90;;;;;;5057469;28;20033;-74
2021/12/08 13:20:58;;;;;;;158.70;55.95;;;6.30;99.90;;;;;;5057726;28;20589;-74
2021/12/08 13:23:28;;;;;;;140.07;53.08;;;6.30;99.90;;;;;;5078054;28;20025;-75
2021/12/08 13:28:29;;;;;;;136.85;54.20;;;6.40;99.90;;;;;;5077912;28;20123;-74
2021/12/08 13:31:38;;;;;;;162.25;56.38;;;6.40;99.90;;;;;;5074274;28;20066;-74
2021/12/08 13:34:11;;;;;;;148.70;56.80;;;6.40;99.90;;;;;;5071656;28;20433;-74
2021/12/08 13:36:47;;;;;;;154.23;54.35;;;6.40;99.90;;;;;;5075113;28;20447;-73
2021/12/08 13:39:28;;;;;;;144.38;51.65;;;6.40;99.90;;;;;;5075100;28;20039;-74
2021/12/08 13:42:01;;;;;;;156.30;58.47;;;6.40;99.90;;;;;;5074941;28;20039;-74
2021/12/08 13:44:58;;;;;;;183.45;58.22;;;6.40;99.90;;;;;;5074917;28;20021;-74
2021/12/08 13:47:26;;;;;;;204.57;61.38;;;6.40;99.90;;;;;;5057561;28;20494;-75
2021/12/08 13:49:54;;;;;;;177.15;53.00;;;6.40;99.90;;;;;;5074927;28;20040;-75
2021/12/08 13:52:24;;;;;;;160.52;52.85;;;6.40;99.90;;;;;;5074913;28;20024;-74
2021/12/08 13:55:14;;;;;;;157.73;51.88;;;6.40;99.90;;;;;;5073564;28;20029;-74